Time;durP1;ratioP1;P1;durP2;ratioP2;P2;SDS_P1;SDS_P2;PMS_P1;PMS_P2;Temp;Humidity;BMP_temperature;BMP_pressure;BME280_temperature;BME280_humidity;BME280_pressure;Samples;Min_cycle;Max_cycle;Signal;HPM_P1;HPM_P2
2021/05/12 00:00:24;;;;;;;;;4.00;4.00;;;;;11.90;70.28;101033.88;4918127;29;10587;-78
2021/05/12 00:03:19;;;;;;;;;2.50;2.50;;;;;11.86;70.66;101030.13;4917037;29;10521;-77
2021/05/12 00:06:16;;;;;;;;;3.50;3.50;;;;;12.16;69.47;101031.00;4917062;29;10504;-77
2021/05/12 00:09:12;;;;;;;;;4.75;4.75;;;;;11.82;70.65;101032.78;4915180;29;10531;-79
2021/05/12 00:12:08;;;;;;;;;7.00;7.00;;;;;11.99;70.30;101036.63;4928196;29;10485;-77
2021/05/12 00:15:09;;;;;;;;;2.25;2.25;;;;;12.08;70.02;101027.13;4909814;29;10522;-77
2021/05/12 00:18:11;;;;;;;;;5.00;5.00;;;;;12.16;69.62;101026.28;4917355;29;10551;-77
2021/05/12 00:21:10;;;;;;;;;4.00;4.00;;;;;12.05;70.24;101024.22;4916880;29;10730;-76
2021/05/12 00:24:06;;;;;;;;;5.00;5.00;;;;;12.08;70.34;101027.13;4916804;29;10559;-77
2021/05/12 00:27:01;;;;;;;;;3.75;3.75;;;;;11.96;70.92;101019.53;4917068;29;10677;-77
2021/05/12 00:29:57;;;;;;;;;3.75;3.75;;;;;11.81;71.75;101025.59;4916701;29;10624;-77
2021/05/12 00:32:53;;;;;;;;;4.75;4.75;;;;;11.69;72.39;101017.13;4921898;29;10552;-78
2021/05/12 00:35:48;;;;;;;;;5.75;5.75;;;;;11.63;72.78;101026.75;4916850;29;10695;-76
2021/05/12 00:38:44;;;;;;;;;3.50;3.50;;;;;11.61;73.08;101029.06;4916362;29;10753;-77
2021/05/12 00:41:41;;;;;;;;;4.50;4.50;;;;;11.74;72.91;101027.22;4916496;29;11411;-77
2021/05/12 00:44:37;;;;;;;;;7.50;7.50;;;;;11.75;72.67;101020.53;4903971;29;10755;-77
2021/05/12 00:47:33;;;;;;;;;4.25;4.25;;;;;11.79;72.46;101030.63;4904221;29;11535;-77
2021/05/12 00:50:03;;;;;;;;;4.00;4.00;;;;;11.84;72.27;101024.94;4917661;29;10754;-78
2021/05/12 00:53:00;;;;;;;;;4.75;4.75;;;;;11.76;72.52;101024.94;4898025;29;11199;-77
2021/05/12 00:55:56;;;;;;;;;7.25;7.25;;;;;11.57;73.12;101022.53;4916047;29;11193;-77
2021/05/12 00:58:52;;;;;;;;;6.50;5.50;;;;;11.67;72.57;101025.78;4903209;29;10646;-77
2021/05/12 01:01:47;;;;;;;;;8.75;8.75;;;;;11.67;72.60;101017.47;4917703;29;10821;-76
2021/05/12 01:04:43;;;;;;;;;9.00;9.00;;;;;11.58;72.96;101016.69;4913713;29;10925;-77
2021/05/12 01:07:38;;;;;;;;;5.00;5.00;;;;;11.75;72.05;101009.47;4916034;29;10935;-79
2021/05/12 01:10:07;;;;;;;;;4.25;4.25;;;;;11.85;71.72;101001.63;4918296;29;10852;-78
2021/05/12 01:13:03;;;;;;;;;8.00;8.00;;;;;12.00;71.95;100999.44;4916745;29;10572;-78
2021/05/12 01:15:58;;;;;;;;;7.00;7.00;;;;;11.96;72.88;100999.28;4903486;29;10792;-76
2021/05/12 01:18:54;;;;;;;;;8.75;8.75;;;;;12.07;73.11;100999.75;4916010;29;10515;-78
2021/05/12 01:21:50;;;;;;;;;6.50;6.50;;;;;11.92;73.81;101004.69;4918533;29;10588;-78
2021/05/12 01:24:45;;;;;;;;;8.75;8.75;;;;;11.89;74.39;101001.78;4918813;29;10729;-79
2021/05/12 01:27:41;;;;;;;;;7.25;7.25;;;;;12.04;73.45;101001.22;4919504;29;10704;-79
2021/05/12 01:30:09;;;;;;;;;10.00;10.00;;;;;11.98;73.97;101007.28;4919704;29;10832;-78
2021/05/12 01:32:50;;;;;;;;;11.00;11.00;;;;;11.82;74.58;100993.97;4918884;29;10866;-78
2021/05/12 01:35:47;;;;;;;;;10.25;10.25;;;;;11.96;74.08;100994.59;4921945;29;10849;-78
2021/05/12 01:38:24;;;;;;;;;8.50;8.50;;;;;12.00;74.12;100988.34;4923922;29;10759;-79
2021/05/12 01:41:25;;;;;;;;;10.75;10.75;;;;;11.82;74.19;100984.84;4920901;29;10628;-79
2021/05/12 01:44:22;;;;;;;;;9.00;9.00;;;;;11.79;75.08;100994.59;4920376;29;11737;-78
2021/05/12 01:47:18;;;;;;;;;10.75;10.75;;;;;11.91;74.45;100989.22;4921061;29;10759;-79
2021/05/12 01:50:14;;;;;;;;;10.00;9.50;;;;;11.64;75.07;100986.81;4920413;29;11573;-79
2021/05/12 01:53:11;;;;;;;;;8.50;8.50;;;;;11.80;74.88;100990.72;4925641;29;10835;-78
2021/05/12 01:56:06;;;;;;;;;8.00;8.00;;;;;11.75;75.06;100987.28;4902296;29;11616;-78
2021/05/12 01:59:03;;;;;;;;;13.50;13.50;;;;;11.56;75.61;100994.00;4902492;29;10574;-78
2021/05/12 02:01:59;;;;;;;;;9.50;9.50;;;;;11.84;74.58;100988.91;4902596;29;11045;-78
2021/05/12 02:04:55;;;;;;;;;9.25;9.25;;;;;11.80;74.88;100989.88;4893648;29;10995;-78
2021/05/12 02:07:53;;;;;;;;;8.50;8.50;;;;;11.87;74.50;100990.19;4903081;29;10830;-79
2021/05/12 02:10:54;;;;;;;;;8.25;8.25;;;;;11.90;73.93;100989.56;4901409;29;10792;-79
2021/05/12 02:13:50;;;;;;;;;9.00;9.00;;;;;11.75;74.36;100993.66;4902022;29;10792;-78
2021/05/12 02:16:45;;;;;;;;;10.00;9.50;;;;;11.78;74.38;100998.50;4903922;29;10710;-79
2021/05/12 02:19:41;;;;;;;;;11.00;11.00;;;;;11.83;74.25;101001.16;4899324;29;11062;-79
2021/05/12 02:22:09;;;;;;;;;9.50;9.50;;;;;11.83;74.49;101005.88;4888510;29;10921;-79
2021/05/12 02:25:07;;;;;;;;;11.25;10.50;;;;;11.78;74.67;101012.38;4919665;29;10897;-78
2021/05/12 02:28:04;;;;;;;;;13.00;13.00;;;;;11.58;75.10;101015.88;4925361;29;10820;-78
2021/05/12 02:30:59;;;;;;;;;13.00;13.00;;;;;11.73;74.79;101022.81;4902240;29;10967;-78
2021/05/12 02:33:55;;;;;;;;;12.75;12.75;;;;;11.60;75.34;101013.56;4888523;29;11014;-78
2021/05/12 02:36:50;;;;;;;;;13.50;13.50;;;;;11.51;75.65;101015.56;4905875;29;10935;-77
2021/05/12 02:39:46;;;;;;;;;15.00;15.00;;;;;11.47;75.79;101014.56;4918975;29;11196;-79
2021/05/12 02:42:42;;;;;;;;;8.75;8.75;;;;;11.68;75.07;101005.22;4920125;29;11144;-78
2021/05/12 02:45:38;;;;;;;;;10.25;10.25;;;;;11.80;74.64;101009.25;4919003;29;10970;-79
2021/05/12 02:48:33;;;;;;;;;12.75;12.75;;;;;11.98;74.13;101018.38;4919212;29;11065;-78
2021/05/12 02:51:29;;;;;;;;;12.75;12.75;;;;;12.06;73.97;101006.44;4920125;29;11346;-77
2021/05/12 02:54:24;;;;;;;;;10.25;10.25;;;;;12.05;73.85;101010.34;4921060;29;10932;-79
2021/05/12 02:57:22;;;;;;;;;10.00;10.00;;;;;11.90;73.95;101014.50;4919942;29;10787;-78
2021/05/12 02:59:51;;;;;;;;;9.50;9.50;;;;;11.88;73.84;101014.78;4921361;29;10912;-78
2021/05/12 03:02:19;;;;;;;;;4.25;4.25;;;;;11.91;73.67;101021.66;4908295;29;11442;-77
2021/05/12 03:05:15;;;;;;;;;7.00;7.00;;;;;11.88;73.90;101022.31;4909827;29;10718;-78
2021/05/12 03:07:44;;;;;;;;;8.50;8.25;;;;;12.03;73.41;101020.94;4919748;29;10698;-78
2021/05/12 03:10:40;;;;;;;;;10.50;10.50;;;;;11.93;73.67;101022.13;4917868;29;10766;-78
2021/05/12 03:13:35;;;;;;;;;7.75;7.75;;;;;11.79;74.36;101027.84;4917036;29;10671;-78
2021/05/12 03:16:32;;;;;;;;;10.00;10.00;;;;;11.77;74.52;101029.34;4906028;29;10703;-79
2021/05/12 03:19:27;;;;;;;;;8.75;8.75;;;;;11.82;74.66;101026.41;4920679;29;10778;-78
2021/05/12 03:21:56;;;;;;;;;14.25;9.75;;;;;11.87;74.87;101027.03;4920860;29;10795;-78
2021/05/12 03:24:52;;;;;;;;;7.00;7.00;;;;;11.52;76.81;101031.84;4898896;29;10765;-78
2021/05/12 03:27:48;;;;;;;;;7.50;5.75;;;;;11.52;77.42;101028.25;4899334;29;10676;-78
2021/05/12 03:30:43;;;;;;;;;10.00;10.00;;;;;11.41;78.36;101034.13;4886374;29;10987;-78
2021/05/12 03:33:12;;;;;;;;;4.25;4.25;;;;;11.44;78.56;101037.41;4901058;29;10950;-78
2021/05/12 03:35:41;;;;;;;;;9.00;9.00;;;;;11.45;78.75;101041.78;4901608;29;10706;-78
2021/05/12 03:38:38;;;;;;;;;8.75;8.75;;;;;11.24;79.92;101034.16;4898578;29;10862;-80
2021/05/12 03:41:34;;;;;;;;;10.50;10.50;;;;;11.16;79.94;101026.66;4886059;29;10808;-79
2021/05/12 03:44:29;;;;;;;;;10.50;10.50;;;;;11.16;79.81;101025.84;4898411;29;11200;-79
2021/05/12 03:47:25;;;;;;;;;8.25;8.25;;;;;11.31;79.97;101028.94;4898738;29;11068;-78
2021/05/12 03:50:23;;;;;;;;;10.00;9.75;;;;;11.33;79.53;101031.38;4910173;29;11021;-80
2021/05/12 03:53:04;;;;;;;;;14.00;13.50;;;;;11.30;79.53;101029.25;4918204;29;10957;-78
2021/05/12 03:56:00;;;;;;;;;13.75;13.25;;;;;11.50;78.88;101033.28;4916779;29;10969;-78
2021/05/12 03:58:32;;;;;;;;;14.00;14.00;;;;;11.54;78.71;101028.72;4900366;29;11890;-78
2021/05/12 04:01:00;;;;;;;;;15.50;15.50;;;;;11.61;78.35;101037.34;4917082;29;10986;-79
2021/05/12 04:03:55;;;;;;;;;11.00;11.00;;;;;11.59;77.79;101028.56;4917625;29;11331;-78
2021/05/12 04:06:51;;;;;;;;;11.00;11.00;;;;;11.73;77.78;101037.50;4916887;29;11280;-79
2021/05/12 04:09:48;;;;;;;;;12.50;12.50;;;;;11.67;77.70;101033.28;4903974;29;11088;-79
2021/05/12 04:12:43;;;;;;;;;14.25;14.25;;;;;11.88;76.96;101036.97;4898130;29;11182;-78
2021/05/12 04:15:54;;;;;;;;;18.50;15.50;;;;;11.76;76.69;101039.59;4905988;29;11033;-79
2021/05/12 04:18:22;;;;;;;;;20.75;20.75;;;;;11.75;76.49;101043.53;4936828;29;11006;-78
2021/05/12 04:21:18;;;;;;;;;11.25;11.25;;;;;11.82;76.17;101038.31;4925164;29;11013;-79
2021/05/12 04:24:14;;;;;;;;;10.00;10.00;;;;;11.68;76.26;101049.56;4917293;29;10734;-81
2021/05/12 04:26:55;;;;;;;;;7.75;7.75;;;;;11.85;75.56;101043.19;4900931;29;10864;-78
2021/05/12 04:29:23;;;;;;;;;9.00;9.00;;;;;11.82;75.09;101045.81;4917206;29;10745;-80
2021/05/12 04:32:19;;;;;;;;;21.25;21.25;;;;;11.82;74.96;101049.41;4908666;29;10485;-78
2021/05/12 04:34:48;;;;;;;;;9.75;9.75;;;;;12.17;74.36;101043.72;4914044;29;11138;-77
2021/05/12 04:37:16;;;;;;;;;10.00;10.00;;;;;12.22;75.13;101044.34;4882696;29;10820;-80
2021/05/12 04:39:44;;;;;;;;;10.50;10.50;;;;;12.63;78.63;101045.59;4919520;29;10648;-84
2021/05/12 04:42:13;;;;;;;;;12.75;12.75;;;;;13.41;79.63;101041.41;4900101;29;10586;-83
2021/05/12 04:44:40;;;;;;;;;22.00;22.00;;;;;13.26;71.81;101048.41;4916826;29;10581;-86
2021/05/12 04:47:08;;;;;;;;;15.25;14.50;;;;;13.03;71.05;101040.44;4917079;29;10623;-82
2021/05/12 04:49:36;;;;;;;;;13.25;13.25;;;;;13.48;76.09;101048.03;4915428;29;10402;-81
2021/05/12 04:52:04;;;;;;;;;12.25;12.25;;;;;13.74;74.23;101042.22;4916979;29;10124;-82
2021/05/12 04:54:32;;;;;;;;;13.75;12.25;;;;;13.69;70.50;101041.63;4918250;29;10395;-81
2021/05/12 04:57:00;;;;;;;;;11.00;10.00;;;;;13.33;69.29;101046.72;4900001;29;10046;-83
2021/05/12 04:59:28;;;;;;;;;9.00;9.00;;;;;13.87;70.98;101043.88;4917531;29;10144;-84
2021/05/12 05:01:56;;;;;;;;;10.50;10.50;;;;;13.78;72.48;101050.69;4916387;29;9981;-86
2021/05/12 05:04:24;;;;;;;;;9.75;9.75;;;;;13.80;73.79;101054.75;4900556;29;9962;-82
2021/05/12 05:06:52;;;;;;;;;10.50;10.50;;;;;14.20;74.70;101045.78;4900944;29;10022;-81
2021/05/12 05:09:21;;;;;;;;;14.00;14.00;;;;;14.25;70.68;101041.94;4919694;29;9928;-80
2021/05/12 05:11:49;;;;;;;;;25.00;25.00;;;;;14.34;69.83;101048.22;4903812;29;9961;-82
2021/05/12 05:14:17;;;;;;;;;24.75;24.25;;;;;14.25;71.83;101047.50;4920413;29;10493;-79
2021/05/12 05:16:47;;;;;;;;;13.00;12.00;;;;;14.39;72.04;101051.56;4921336;29;10471;-80
2021/05/12 05:19:15;;;;;;;;;15.25;14.50;;;;;13.77;70.76;101052.66;4903468;29;10075;-81
2021/05/12 05:21:43;;;;;;;;;0.00;0.00;;;;;13.38;70.48;101040.13;4920352;29;9969;-82
2021/05/12 05:24:11;;;;;;;;;10.50;10.50;;;;;13.08;71.67;101059.63;4903402;29;9797;-83
2021/05/12 05:26:38;;;;;;;;;14.00;13.25;;;;;13.99;74.73;101051.44;4921289;29;9992;-81
2021/05/12 05:29:06;;;;;;;;;13.25;13.25;;;;;14.37;73.64;101051.13;4921552;29;10002;-79
2021/05/12 05:31:34;;;;;;;;;13.50;13.50;;;;;14.43;67.76;101060.84;4920500;29;10010;-79
2021/05/12 05:34:02;;;;;;;;;18.00;18.00;;;;;14.31;66.17;101052.50;4919956;29;10160;-81
2021/05/12 05:36:30;;;;;;;;;38.00;33.75;;;;;13.77;65.77;101060.19;4903091;29;10214;-82
2021/05/12 05:38:58;;;;;;;;;30.50;29.75;;;;;14.11;68.04;101059.81;4903409;29;10869;-80
2021/05/12 05:41:26;;;;;;;;;14.00;12.75;;;;;14.26;65.16;101063.03;4902951;29;10601;-78
2021/05/12 05:43:54;;;;;;;;;22.25;22.25;;;;;14.60;68.08;101061.81;4920486;29;10107;-79
2021/05/12 05:46:22;;;;;;;;;19.50;16.75;;;;;14.83;66.40;101071.28;4903119;29;10401;-79
2021/05/12 05:48:50;;;;;;;;;32.25;28.00;;;;;14.64;66.29;101062.72;4904404;29;10292;-79
2021/05/12 05:51:18;;;;;;;;;32.00;28.75;;;;;14.47;64.32;101069.34;4919337;29;10301;-80
2021/05/12 05:53:46;;;;;;;;;24.25;23.25;;;;;14.06;65.32;101071.13;4902307;29;10593;-82
2021/05/12 05:56:14;;;;;;;;;26.50;26.50;;;;;14.51;71.12;101061.94;4919698;29;10139;-81
2021/05/12 05:58:42;;;;;;;;;37.00;33.25;;;;;14.83;65.40;101060.16;4919543;29;10309;-80
2021/05/12 06:01:10;;;;;;;;;25.75;25.75;;;;;15.09;68.06;101062.53;4902265;29;10639;-80
2021/05/12 06:03:38;;;;;;;;;20.75;20.75;;;;;15.44;66.23;101071.13;4919854;29;10577;-80
2021/05/12 06:06:06;;;;;;;;;46.25;40.75;;;;;15.13;63.43;101063.44;4919041;29;10198;-80
2021/05/12 06:08:34;;;;;;;;;29.00;29.00;;;;;15.08;62.01;101063.69;4902817;29;10876;-83
2021/05/12 06:11:04;;;;;;;;;25.25;25.25;;;;;14.66;65.40;101061.22;4902686;29;10280;-81
2021/05/12 06:13:44;;;;;;;;;30.25;29.00;;;;;15.37;65.68;101065.34;4919483;29;10151;-80
2021/05/12 06:16:12;;;;;;;;;20.75;20.75;;;;;15.62;65.62;101068.06;4902405;29;10368;-81
2021/05/12 06:18:47;;;;;;;;;8.00;8.00;;;;;15.01;61.68;101077.41;4918749;29;9987;-81
2021/05/12 06:21:15;;;;;;;;;12.25;12.25;;;;;14.77;64.34;101063.53;4918205;29;10241;-82
2021/05/12 06:23:42;;;;;;;;;17.75;17.75;;;;;14.68;65.61;101064.47;4902365;29;9847;-81
2021/05/12 06:26:16;;;;;;;;;26.75;25.50;;;;;14.43;65.88;101066.44;4902430;29;9901;-80
2021/05/12 06:28:46;;;;;;;;;26.75;26.75;;;;;14.78;67.55;101067.94;4918170;29;10309;-82
2021/05/12 06:31:14;;;;;;;;;20.75;20.75;;;;;14.78;69.01;101067.94;4901884;29;11110;-80
2021/05/12 06:33:47;;;;;;;;;26.00;25.25;;;;;15.28;65.38;101062.72;4918993;29;10846;-80
2021/05/12 06:36:16;;;;;;;;;23.25;22.50;;;;;15.13;66.48;101065.44;4902750;29;10148;-82
2021/05/12 06:39:04;;;;;;;;;27.25;27.25;;;;;15.60;65.87;101059.22;4904564;29;10244;-81
2021/05/12 06:41:34;;;;;;;;;19.50;19.25;;;;;16.13;65.55;101060.66;4919140;29;10151;-81
2021/05/12 06:44:04;;;;;;;;;4.00;4.00;;;;;15.71;58.22;101063.13;4918888;29;9983;-80
2021/05/12 06:46:32;;;;;;;;;17.25;17.25;;;;;15.63;60.86;101056.53;4902680;29;9251;-80
2021/05/12 06:48:59;;;;;;;;;17.50;17.50;;;;;15.79;60.22;101053.78;4919306;29;9732;-79
2021/05/12 06:51:29;;;;;;;;;14.00;14.00;;;;;15.36;59.60;101062.91;4918726;29;9619;-80
2021/05/12 06:53:57;;;;;;;;;15.50;15.50;;;;;15.61;61.19;101058.03;4902367;29;9483;-80
2021/05/12 06:56:25;;;;;;;;;11.50;11.50;;;;;15.40;59.20;101058.25;4901933;29;9744;-82
2021/05/12 06:58:53;;;;;;;;;18.50;18.50;;;;;14.83;62.28;101062.13;4916953;29;9413;-81
2021/05/12 07:01:20;;;;;;;;;14.50;14.00;;;;;14.45;61.44;101052.16;4917698;29;9501;-81
2021/05/12 07:04:16;;;;;;;;;21.50;20.50;;;;;14.71;60.58;101052.63;4917019;29;9723;-82
2021/05/12 07:07:16;;;;;;;;;20.50;20.00;;;;;14.74;60.18;101048.34;4898049;29;11041;-80
2021/05/12 07:09:58;;;;;;;;;15.00;15.00;;;;;15.37;63.42;101043.06;4898866;29;10149;-81
2021/05/12 07:12:55;;;;;;;;;11.75;11.75;;;;;15.50;59.35;101044.63;4908676;29;9796;-82
2021/05/12 07:15:50;;;;;;;;;17.25;17.25;;;;;15.32;60.37;101036.91;4903406;29;9636;-81
2021/05/12 07:18:46;;;;;;;;;13.00;13.00;;;;;15.33;60.60;101035.75;4903871;29;9895;-82
2021/05/12 07:21:42;;;;;;;;;17.25;17.25;;;;;15.26;59.33;101028.00;4916601;29;9774;-82
2021/05/12 07:24:10;;;;;;;;;14.50;14.50;;;;;15.38;61.46;101029.94;4900905;29;9793;-81
2021/05/12 07:27:06;;;;;;;;;15.00;13.50;;;;;15.21;61.60;101031.03;4916414;29;9724;-81
2021/05/12 07:29:34;;;;;;;;;10.33;8.00;;;;;15.62;58.56;101035.41;4900040;29;9570;-81
2021/05/12 07:32:29;;;;;;;;;19.00;17.25;;;;;16.11;62.96;101037.91;4916090;29;9469;-80
2021/05/12 07:35:25;;;;;;;;;13.00;13.00;;;;;15.79;58.47;101035.06;4903595;29;9818;-80
2021/05/12 07:38:06;;;;;;;;;11.00;10.67;;;;;16.27;61.15;101041.50;4916760;29;9653;-80
2021/05/12 07:41:03;;;;;;;;;6.00;6.00;;;;;16.60;56.06;101041.09;4903499;29;9323;-81
2021/05/12 07:43:59;;;;;;;;;5.00;5.00;;;;;16.21;52.96;101039.34;4915780;29;9169;-80
2021/05/12 07:46:27;;;;;;;;;7.00;7.00;;;;;16.27;55.07;101041.50;4915633;29;9036;-79
2021/05/12 07:49:22;;;;;;;;;12.00;12.00;;;;;16.59;60.76;101033.88;4902718;29;9099;-80
2021/05/12 07:52:18;;;;;;;;;11.00;11.00;;;;;15.79;57.35;101035.06;4915930;29;9493;-80
2021/05/12 07:55:14;;;;;;;;;19.00;18.33;;;;;15.57;57.76;101030.06;4903442;29;9212;-80
2021/05/12 07:58:10;;;;;;;;;17.50;17.50;;;;;15.67;57.96;101031.56;4903060;29;10141;-75
2021/05/12 08:00:40;;;;;;;;;18.75;17.75;;;;;15.45;57.23;101025.34;4917043;29;9565;-75
2021/05/12 08:03:36;;;;;;;;;6.00;6.00;;;;;15.50;57.78;101025.13;4893603;29;9496;-75
2021/05/12 08:06:32;;;;;;;;;11.67;11.67;;;;;15.70;56.76;101028.03;4897912;29;10354;-76
2021/05/12 08:09:02;;;;;;;;;11.33;11.33;;;;;15.65;56.37;101017.97;4916710;29;9333;-78
2021/05/12 08:11:59;;;;;;;;;16.33;16.00;;;;;16.20;55.38;101013.41;4915348;29;9207;-72
2021/05/12 08:14:55;;;;;;;;;7.67;7.67;;;;;16.11;55.27;101021.97;4915596;29;9390;-75
2021/05/12 08:17:52;;;;;;;;;8.00;8.00;;;;;16.39;54.25;101019.03;4905980;29;9188;-75
2021/05/12 08:20:48;;;;;;;;;9.67;9.67;;;;;16.24;55.33;101024.66;4884039;29;9259;-74
2021/05/12 08:23:32;;;;;;;;;10.00;10.00;;;;;16.61;54.12;101019.56;4928320;29;9257;-75
2021/05/12 08:26:10;;;;;;;;;6.00;5.67;;;;;16.61;50.57;101022.34;4916603;29;9103;-76
2021/05/12 08:29:07;;;;;;;;;6.00;6.00;;;;;17.07;50.63;101017.00;4903482;29;9040;-76
2021/05/12 08:31:38;;;;;;;;;6.33;6.33;;;;;16.98;50.97;101011.63;4915922;29;9693;-69
2021/05/12 08:34:34;;;;;;;;;3.25;3.25;;;;;17.14;48.82;101011.56;4896475;29;9100;-75
2021/05/12 08:37:30;;;;;;;;;5.50;5.50;;;;;16.70;49.02;101011.81;4896289;29;8915;-76
2021/05/12 08:40:27;;;;;;;;;3.25;3.25;;;;;16.59;49.93;101010.75;4884171;29;8869;-76
2021/05/12 08:43:27;;;;;;;;;5.00;5.00;;;;;17.27;49.25;101004.66;4898095;29;8850;-76
2021/05/12 08:46:19;;;;;;;;;3.25;3.25;;;;;17.81;46.65;101008.50;4925562;29;8865;-75
2021/05/12 08:48:50;;;;;;;;;2.25;2.25;;;;;17.67;45.93;101006.22;4919015;29;9692;-76
2021/05/12 08:51:46;;;;;;;;;3.25;3.25;;;;;17.57;45.48;101004.84;4918620;29;8882;-75
2021/05/12 08:54:15;;;;;;;;;7.00;7.00;;;;;17.19;47.72;101003.69;4920396;29;8894;-76
2021/05/12 08:57:11;;;;;;;;;6.00;6.00;;;;;17.09;49.69;101011.84;4918803;29;8986;-76
2021/05/12 09:00:07;;;;;;;;;6.00;6.00;;;;;17.32;50.09;100995.94;4907434;29;8945;-75
2021/05/12 09:03:03;;;;;;;;;9.00;9.00;;;;;17.00;50.75;100995.31;4919130;29;8851;-76
2021/05/12 09:05:59;;;;;;;;;8.50;8.50;;;;;16.94;52.11;101014.38;4906320;29;8859;-77
2021/05/12 09:08:56;;;;;;;;;8.00;8.00;;;;;16.87;52.14;101011.41;4905045;29;8855;-76
2021/05/12 09:11:25;;;;;;;;;9.00;9.00;;;;;16.80;52.24;101011.25;4919666;29;8952;-80
2021/05/12 09:14:26;;;;;;;;;8.00;8.00;;;;;16.51;53.48;101012.56;4918643;29;8985;-78
2021/05/12 09:16:54;;;;;;;;;6.33;6.33;;;;;16.48;54.78;101013.25;4919472;29;8887;-78
2021/05/12 09:19:50;;;;;;;;;5.67;5.67;;;;;16.27;58.28;101033.13;4905870;29;8972;-76
2021/05/12 09:22:18;;;;;;;;;4.50;4.50;;;;;16.14;60.76;101026.00;4916158;29;9055;-77
2021/05/12 09:24:46;;;;;;;;;4.50;4.50;;;;;15.30;60.46;101026.13;4905401;29;8894;-79
2021/05/12 09:27:41;;;;;;;;;2.67;2.67;;;;;14.75;59.34;101016.56;4915743;29;8848;-78
2021/05/12 09:30:38;;;;;;;;;35.00;33.00;;;;;14.44;61.69;101009.59;4917797;29;9015;-78
2021/05/12 09:33:38;;;;;;;;;44.25;38.75;;;;;14.29;62.31;101010.31;4905105;29;10159;-77
2021/05/12 09:36:29;;;;;;;;;48.50;37.00;;;;;13.96;64.55;101004.06;4919548;29;10472;-77
2021/05/12 09:39:25;;;;;;;;;47.75;40.00;;;;;14.43;67.02;100996.84;4890644;29;10791;-79
2021/05/12 09:42:22;;;;;;;;;43.00;37.00;;;;;14.96;67.41;100997.69;4898489;29;11690;-79
2021/05/12 09:45:19;;;;;;;;;40.50;37.50;;;;;15.10;66.45;100994.50;4890811;29;10735;-77
2021/05/12 09:47:58;;;;;;;;;31.00;29.75;;;;;15.16;66.87;100993.09;4919194;29;10826;-78
2021/05/12 09:50:43;;;;;;;;;30.00;29.50;;;;;15.02;65.47;100993.47;4919245;29;10076;-80
2021/05/12 09:53:40;;;;;;;;;41.00;36.50;;;;;14.71;65.75;100996.13;4935079;29;9969;-79
2021/05/12 09:56:45;;;;;;;;;33.25;30.00;;;;;15.09;64.89;100995.66;4937243;29;10450;-78
2021/05/12 09:59:41;;;;;;;;;13.00;13.00;;;;;15.41;60.55;100995.75;4937823;29;10398;-77
2021/05/12 10:02:46;;;;;;;;;16.00;16.00;;;;;15.51;58.57;100998.03;4928517;29;9741;-78
2021/05/12 10:05:58;;;;;;;;;20.50;20.50;;;;;15.30;56.67;101004.63;4906083;29;9622;-77
2021/05/12 10:08:54;;;;;;;;;16.00;16.00;;;;;15.09;57.00;100997.66;4917256;29;9803;-78
2021/05/12 10:12:04;;;;;;;;;21.25;21.00;;;;;14.84;57.20;101000.50;4898007;29;10878;-78
2021/05/12 10:15:00;;;;;;;;;36.50;33.50;;;;;15.25;57.68;100995.72;4900843;29;9813;-77
2021/05/12 10:17:56;;;;;;;;;29.75;29.75;;;;;15.64;57.62;100994.06;4917765;29;10225;-78
2021/05/12 10:20:57;;;;;;;;;24.00;22.50;;;;;15.53;58.52;100990.94;4927754;29;10118;-78
2021/05/12 10:23:26;;;;;;;;;16.33;15.00;;;;;15.73;58.76;100988.31;4901306;29;9811;-78
2021/05/12 10:25:55;;;;;;;;;18.25;17.00;;;;;15.66;58.01;100993.69;4899661;29;9607;-78
2021/05/12 10:28:53;;;;;;;;;18.50;18.50;;;;;15.58;57.02;100999.06;4907458;29;9578;-79
2021/05/12 10:31:49;;;;;;;;;21.75;19.75;;;;;15.81;57.23;100984.53;4914153;29;9621;-79
2021/05/12 10:34:48;;;;;;;;;18.75;18.75;;;;;16.13;56.71;100982.53;4922264;29;9577;-78
2021/05/12 10:37:47;;;;;;;;;16.00;16.00;;;;;16.10;56.07;100984.09;4917504;29;10326;-79
2021/05/12 10:40:49;;;;;;;;;23.75;21.25;;;;;16.35;55.82;100981.88;4917029;29;9421;-78
2021/05/12 10:43:47;;;;;;;;;29.25;23.00;;;;;16.66;55.38;100985.78;4918059;29;9625;-79
2021/05/12 10:46:26;;;;;;;;;18.75;17.25;;;;;16.02;56.02;100981.44;4902963;29;9759;-79
2021/05/12 10:48:56;;;;;;;;;9.00;9.00;;;;;16.32;55.13;100979.81;4901284;29;9755;-78
2021/05/12 10:51:53;;;;;;;;;26.50;25.50;;;;;15.92;56.69;100973.63;4916627;29;9109;-78
2021/05/12 10:54:53;;;;;;;;;17.33;17.33;;;;;16.05;57.29;100977.97;4917121;29;9747;-77
2021/05/12 10:57:49;;;;;;;;;10.33;10.33;;;;;16.07;57.65;100981.19;4916626;29;9328;-78
2021/05/12 11:01:12;;;;;;;;;9.67;9.67;;;;;15.82;58.76;100973.00;4916692;29;9267;-81
2021/05/12 11:04:11;;;;;;;;;13.00;13.00;;;;;15.98;59.23;100978.59;4897411;29;9342;-77
2021/05/12 11:06:40;;;;;;;;;6.67;6.67;;;;;16.02;58.89;100973.88;4916349;29;9251;-78
2021/05/12 11:09:46;;;;;;;;;4.00;4.00;;;;;15.93;58.89;100978.84;4916555;29;9094;-76
2021/05/12 11:12:43;;;;;;;;;2.33;2.33;;;;;16.16;58.42;100967.06;4916794;29;9129;-77
2021/05/12 11:15:53;;;;;;;;;1.00;1.00;;;;;16.46;57.33;100970.16;4916412;29;9796;-77
2021/05/12 11:18:50;;;;;;;;;4.67;4.67;;;;;16.40;57.67;100970.41;4914894;29;8885;-77
2021/05/12 11:21:46;;;;;;;;;1.75;1.75;;;;;16.80;56.81;100971.34;4912017;29;9000;-76
2021/05/12 11:24:49;;;;;;;;;1.00;1.00;;;;;16.94;55.17;100963.25;4920307;29;8951;-77
2021/05/12 11:31:26;;;;;;;;;7.00;7.00;;;;;16.93;53.67;100967.22;4901610;29;8847;-76
2021/05/12 11:34:23;;;;;;;;;23.67;22.67;;;;;16.32;58.46;100970.63;4912462;29;8874;-77
2021/05/12 11:37:22;;;;;;;;;4.00;4.00;;;;;16.36;56.63;100979.91;4913498;29;9469;-76
2021/05/12 11:40:17;;;;;;;;;1.00;1.00;;;;;16.35;58.12;100986.66;4917392;29;8855;-76
2021/05/12 11:43:16;;;;;;;;;0.00;0.00;;;;;15.95;61.67;100973.75;4916278;29;8854;-76
2021/05/12 11:46:13;;;;;;;;;1.00;1.00;;;;;15.62;64.87;100982.44;4916039;29;8855;-76
2021/05/12 11:48:57;;;;;;;;;2.67;2.67;;;;;15.34;67.13;100979.69;4908589;29;8890;-79
2021/05/12 11:51:58;;;;;;;;;1.00;1.00;;;;;15.06;68.82;100985.25;4903402;29;9035;-76
2021/05/12 11:54:40;;;;;;;;;0.00;0.00;;;;;14.62;71.01;100974.00;4916103;29;9058;-78
2021/05/12 11:57:36;;;;;;;;;0.00;0.00;;;;;14.65;72.04;100978.88;4901784;29;9391;-76
2021/05/12 12:00:34;;;;;;;;;0.33;0.33;;;;;14.69;70.24;100988.13;4915876;29;9067;-76
2021/05/12 12:03:30;;;;;;;;;1.00;1.00;;;;;14.78;70.32;100981.63;4916082;29;9133;-76
2021/05/12 12:06:26;;;;;;;;;1.00;1.00;;;;;14.68;71.68;100980.94;4915800;29;9221;-75
2021/05/12 12:08:54;;;;;;;;;2.00;2.00;;;;;14.82;73.52;100980.56;4917194;29;9109;-74
2021/05/12 12:11:50;;;;;;;;;2.00;2.00;;;;;14.88;72.43;100978.38;4896733;29;9484;-74
2021/05/12 12:14:46;;;;;;;;;2.33;2.33;;;;;15.17;74.35;100977.19;4897003;29;9191;-75
2021/05/12 12:17:41;;;;;;;;;3.00;3.00;;;;;15.37;73.90;100972.56;4896601;29;9348;-74
2021/05/12 12:20:37;;;;;;;;;3.00;3.00;;;;;15.63;71.68;100972.91;4896695;29;9365;-75
2021/05/12 12:23:35;;;;;;;;;0.00;0.00;;;;;15.83;70.61;100976.63;4896454;29;9194;-75
2021/05/12 12:26:16;;;;;;;;;1.00;1.00;;;;;15.94;66.28;100976.88;4897856;29;8984;-75
2021/05/12 12:29:13;;;;;;;;;3.00;3.00;;;;;16.04;68.31;100976.34;4902359;29;8873;-75
2021/05/12 12:32:08;;;;;;;;;1.00;1.00;;;;;15.90;68.78;100976.00;4917452;29;8949;-75
2021/05/12 12:35:04;;;;;;;;;0.00;0.00;;;;;15.74;66.76;100981.56;4902717;29;8906;-75
2021/05/12 12:38:11;;;;;;;;;3.00;3.00;;;;;15.60;68.61;100970.81;4914025;29;8961;-75
2021/05/12 12:41:07;;;;;;;;;2.00;2.00;;;;;16.01;67.59;100977.03;4915215;29;9043;-75
2021/05/12 12:43:36;;;;;;;;;3.00;3.00;;;;;15.94;66.29;100966.53;4899745;29;8851;-75
2021/05/12 12:46:32;;;;;;;;;0.75;0.75;;;;;15.73;65.32;100977.97;4915442;29;8871;-76
2021/05/12 12:49:40;;;;;;;;;1.00;1.00;;;;;16.00;65.07;100970.66;4902414;29;8935;-76
2021/05/12 12:52:41;;;;;;;;;0.00;0.00;;;;;16.13;64.00;100976.97;4914294;29;8864;-77